• Join FlightAware (Why Join?)
  • Login
  • US Flag 
09:16PM EDT


 

Airport Tracker/Info


-or-


 

Live Flight TrackerFlight Track Log ✈ N1926A ✈ 17-May-2013 ✈ 41A - KHSV

Flight Track Log - Related Links

Times and Time Zones

All times are in EDT time to prevent confusion due to time zone crossing. See the N1926A flight status page for this flight to view local times or setup timezone preferences in your user account.

Time Position Orientation Groundspeed Altitude Reporting Facility
EDT Latitude Longitude Course Direction KTS MPH feet Rate Location/Type
09:58AM 33.1800 -86.1039 341° North 258 297 12,000  Level Atlanta Center
09:58AM 33.1906 -86.1017 10° North 254 292 12,000  Level Atlanta Center
09:58AM 33.2275 -86.1272 330° Northwest 262 302 12,000 -420 Level Atlanta Center
09:59AM 33.2567 -86.1381 343° North 254 292 11,600 -1,140 Descending Atlanta Center
09:59AM 33.2981 -86.1639 332° Northwest 277 319 10,900 -1,020 Descending Atlanta Center
10:00AM 33.3292 -86.1769 341° North 260 299 10,600 -600 Descending Atlanta Center
10:00AM 33.3703 -86.2028 332° Northwest 288 331 10,300 -600 Descending Atlanta Center
10:01AM 33.4014 -86.2161 340° North 271 312 10,000 -300 Descending Atlanta Center
10:01AM 33.4386 -86.2394 332° Northwest 276 318 10,000  Level Atlanta Center
10:02AM 33.4697 -86.2503 344° North 277 319 10,000  Level Atlanta Center
10:02AM 33.5069 -86.2736 332° Northwest 265 305 10,000  Level Atlanta Center
10:03AM 33.4353 -86.2602 341° North  Level Estimated
10:03AM 33.5400 -86.2794 352° North 272 313 10,000  Level Atlanta Center
10:03AM 33.5794 -86.3003 336° Northwest 260 299 10,000  Level Atlanta Center
10:04AM 33.6167 -86.3139 343° North 267 307 10,000  Level Atlanta Center
10:04AM 33.6517 -86.3347 334° Northwest 266 306 10,000  Level Atlanta Center
10:05AM 33.6872 -86.3431 349° North 267 307 10,000  Level Atlanta Center
10:05AM 33.7181 -86.3664 328° Northwest 265 305 10,000  Level Atlanta Center
10:06AM 33.7533 -86.3750 349° North 267 307 10,000  Level Atlanta Center
10:06AM 33.7906 -86.3958 335° Northwest 266 306 10,000  Level Atlanta Center
10:07AM 33.8153 -86.4092 336° Northwest 267 307 10,000  Level Atlanta Center
10:08AM 33.8942 -86.4389 343° North 277 319 10,000  Level Atlanta Center
10:09AM 33.9622 -86.4708 339° North 276 318 10,000  Level Atlanta Center
10:11AM 34.0639 -86.5157 345° North  Level FlightAware Approximate
10:18AM 34.4878 -86.7105 338° Northwest  Level FlightAware Approximate
10:19AM 34.5492 -86.7363 342° North  Level FlightAware Approximate
10:20AM 34.6113 -86.7593 345° North  Level FlightAware Approximate
10:21AM 34.6333 -86.7667 345° North  Level FlightAware Approximate
10:22AM 34.6372 -86.7751 345° North  Level Estimated
10:23AM 34.6372 -86.7751 345° North  Level Estimated
10:24AM 34.6372 -86.7751 345° North  Level Estimated
10:25AM 34.6372 -86.7751 345° North  Level Estimated
10:26AM 34.6372 -86.7751 345° North  Level Estimated
10:27AM 34.6372 -86.7751 345° North  Level Estimated
10:28AM 34.6372 -86.7751 345° North  Level Estimated